createdAt,value
2019-06-26T00:01:10.335Z,65.50
2019-06-26T00:03:37.483Z,65.60
2019-06-26T00:06:04.702Z,65.60
2019-06-26T00:08:31.671Z,65.30
2019-06-26T00:10:58.615Z,63.60
2019-06-26T00:13:26.907Z,65.30
2019-06-26T00:19:08.547Z,64.30
2019-06-26T00:21:35.514Z,64.80
2019-06-26T00:24:02.372Z,64.30
2019-06-26T00:26:29.686Z,64.20
2019-06-26T00:28:56.643Z,67.20
2019-06-26T00:31:23.700Z,67.80
2019-06-26T00:33:50.651Z,67.30
2019-06-26T00:36:17.474Z,67.30
2019-06-26T00:38:44.319Z,67.90
2019-06-26T00:41:11.282Z,68.10
2019-06-26T00:43:42.365Z,68.10
2019-06-26T00:46:06.862Z,67.90
2019-06-26T00:48:33.696Z,67.70
2019-06-26T00:51:01.015Z,67.10
2019-06-26T00:53:27.885Z,67.00
2019-06-26T00:55:55.291Z,67.00
2019-06-26T00:58:22.443Z,67.90
2019-06-26T01:00:50.378Z,67.50
2019-06-26T01:03:17.336Z,68.60
2019-06-26T01:05:44.179Z,67.80
2019-06-26T01:08:11.014Z,68.10
2019-06-26T01:14:11.679Z,69.00
2019-06-26T01:16:38.630Z,72.70
2019-06-26T01:19:05.676Z,69.70
2019-06-26T01:21:32.744Z,69.30
2019-06-26T01:23:59.996Z,69.40
2019-06-26T01:26:27.043Z,69.60
2019-06-26T01:28:54.274Z,69.20
2019-06-26T01:31:23.211Z,68.30
2019-06-26T01:33:50.185Z,67.60
2019-06-26T01:36:18.297Z,67.30
2019-06-26T01:38:45.127Z,66.50
2019-06-26T01:41:12.140Z,66.30
2019-06-26T01:43:38.967Z,66.20
2019-06-26T01:46:05.886Z,68.40
2019-06-26T01:48:32.831Z,66.40
2019-06-26T01:50:59.764Z,66.70
2019-06-26T01:53:26.720Z,67.00
2019-06-26T01:55:53.845Z,66.40
2019-06-26T01:58:40.465Z,66.10
2019-06-26T02:01:07.421Z,66.20
2019-06-26T02:03:34.373Z,69.30
2019-06-26T02:06:01.332Z,70.30
2019-06-26T02:08:28.280Z,69.20
2019-06-26T02:10:55.096Z,68.90
2019-06-26T02:13:21.936Z,69.50
2019-06-26T02:19:05.118Z,70.10
2019-06-26T02:21:32.680Z,71.30
2019-06-26T02:24:00.951Z,69.00
2019-06-26T02:26:27.880Z,69.50
2019-06-26T02:28:54.719Z,69.80
2019-06-26T02:31:22.143Z,68.90
2019-06-26T02:33:48.967Z,65.90
2019-06-26T02:36:15.804Z,65.70
2019-06-26T02:38:42.759Z,67.10
2019-06-26T02:41:09.593Z,66.50
2019-06-26T02:43:36.527Z,67.20
2019-06-26T02:46:03.652Z,67.50
2019-06-26T02:48:30.592Z,66.30
2019-06-26T02:50:57.520Z,66.20
2019-06-26T02:53:24.432Z,66.90
2019-06-26T02:55:51.277Z,66.20
2019-06-26T02:58:18.200Z,67.00
2019-06-26T03:00:45.049Z,67.00
2019-06-26T03:03:12.329Z,68.00
2019-06-26T03:05:39.275Z,69.10
2019-06-26T03:08:06.195Z,67.00
2019-06-26T03:10:33.428Z,68.20
2019-06-26T03:13:00.476Z,67.70
2019-06-26T03:15:27.331Z,68.40
2019-06-26T03:17:55.831Z,68.90
2019-06-26T03:20:32.220Z,69.80
2019-06-26T03:22:59.162Z,71.70
2019-06-26T03:25:26.087Z,71.10
2019-06-26T03:27:53.023Z,69.20
2019-06-26T03:30:20.140Z,67.60
2019-06-26T03:32:47.086Z,69.60
2019-06-26T03:35:14.480Z,68.20
2019-06-26T03:37:41.940Z,66.40
2019-06-26T03:40:08.853Z,70.90
2019-06-26T03:42:35.807Z,71.00
2019-06-26T03:45:05.287Z,71.60
2019-06-26T03:47:31.979Z,71.10
2019-06-26T03:49:59.170Z,69.20
2019-06-26T03:52:27.211Z,68.40
2019-06-26T03:54:54.241Z,68.40
2019-06-26T03:57:21.065Z,68.10
2019-06-26T03:59:48.404Z,68.30
2019-06-26T04:02:15.380Z,68.20
2019-06-26T04:04:42.336Z,68.90
2019-06-26T04:07:09.247Z,68.10
2019-06-26T04:09:36.427Z,68.10
2019-06-26T04:12:04.479Z,66.40
2019-06-26T04:14:31.318Z,66.20
2019-06-26T04:16:58.243Z,66.00
2019-06-26T04:19:25.187Z,66.20
2019-06-26T04:21:51.998Z,65.20
2019-06-26T04:24:18.957Z,65.20
2019-06-26T04:26:45.893Z,65.10
2019-06-26T04:29:13.439Z,65.20
2019-06-26T04:31:40.361Z,65.10
2019-06-26T04:34:07.229Z,65.10
2019-06-26T04:36:34.220Z,64.70
2019-06-26T04:39:01.058Z,64.70
2019-06-26T04:41:29.695Z,64.70
2019-06-26T04:43:56.627Z,64.70
2019-06-26T04:46:23.596Z,65.20
2019-06-26T04:48:50.992Z,64.90
2019-06-26T04:51:19.211Z,65.00
2019-06-26T04:53:46.124Z,64.90
2019-06-26T04:56:14.506Z,65.20
2019-06-26T04:58:41.387Z,65.30
2019-06-26T05:01:08.336Z,65.60
2019-06-26T05:03:35.167Z,65.70
2019-06-26T05:06:02.103Z,65.60
2019-06-26T05:08:34.090Z,65.80
2019-06-26T05:11:01.434Z,66.10
2019-06-26T05:13:28.598Z,66.00
2019-06-26T05:15:55.435Z,67.10
2019-06-26T05:18:22.276Z,66.20
2019-06-26T05:20:49.251Z,66.70
2019-06-26T05:23:16.103Z,66.60
2019-06-26T05:25:43.056Z,66.50
2019-06-26T05:28:09.962Z,66.80
2019-06-26T05:30:36.911Z,66.90
2019-06-26T05:33:03.731Z,66.30
2019-06-26T05:35:30.661Z,66.40
2019-06-26T05:37:57.599Z,66.40
2019-06-26T05:40:24.523Z,66.90
2019-06-26T05:42:51.475Z,66.50
2019-06-26T05:45:19.606Z,66.50
2019-06-26T05:47:46.627Z,67.80
2019-06-26T05:50:15.486Z,66.50
2019-06-26T05:52:43.268Z,67.10
2019-06-26T05:55:13.424Z,65.00
2019-06-26T05:57:41.996Z,66.40
2019-06-26T06:00:11.541Z,65.10
2019-06-26T06:02:38.975Z,64.90
2019-06-26T06:05:08.015Z,65.40
2019-06-26T06:07:34.855Z,67.30
2019-06-26T06:10:02.501Z,63.10
2019-06-26T06:12:30.451Z,65.60
2019-06-26T06:14:57.393Z,63.10
2019-06-26T06:17:24.463Z,64.00
2019-06-26T06:19:51.490Z,62.00
2019-06-26T06:22:18.422Z,59.00
2019-06-26T06:24:45.367Z,56.80
2019-06-26T06:27:12.799Z,56.50
2019-06-26T06:29:39.656Z,57.50
2019-06-26T06:32:06.660Z,55.80
2019-06-26T06:34:33.625Z,56.00
2019-06-26T06:37:00.594Z,54.40
2019-06-26T06:39:27.551Z,53.80
2019-06-26T06:41:54.531Z,52.80
2019-06-26T06:44:21.500Z,52.70
2019-06-26T06:47:02.783Z,53.30
2019-06-26T06:49:16.990Z,52.50
2019-06-26T06:51:44.023Z,52.70
2019-06-26T06:54:11.017Z,53.10
2019-06-26T06:56:37.815Z,52.20
2019-06-26T06:59:04.760Z,52.10
2019-06-26T07:01:31.701Z,52.60
2019-06-26T07:03:58.609Z,52.70
2019-06-26T07:06:25.410Z,53.20
2019-06-26T07:08:52.348Z,52.20
2019-06-26T07:11:19.278Z,51.40
2019-06-26T07:13:47.047Z,52.60
2019-06-26T07:16:13.883Z,51.50
2019-06-26T07:18:40.810Z,51.40
2019-06-26T07:21:07.755Z,51.90
2019-06-26T07:23:34.715Z,51.80
2019-06-26T07:26:02.668Z,51.80
2019-06-26T07:28:29.483Z,50.70
2019-06-26T07:30:56.427Z,48.50
2019-06-26T07:33:23.259Z,48.10
2019-06-26T07:35:50.201Z,45.40
2019-06-26T07:38:17.156Z,44.70
2019-06-26T07:40:44.071Z,43.20
2019-06-26T07:43:11.015Z,42.30
2019-06-26T07:45:38.639Z,38.30
2019-06-26T07:48:05.479Z,36.90
2019-06-26T07:50:32.916Z,34.60
2019-06-26T07:52:59.982Z,38.40
2019-06-26T07:55:26.940Z,33.60
2019-06-26T07:57:53.776Z,36.60
2019-06-26T08:00:23.267Z,37.10
2019-06-26T08:02:50.213Z,36.30
2019-06-26T08:05:17.161Z,34.70
2019-06-26T08:07:43.988Z,30.80
2019-06-26T08:10:12.622Z,30.80
2019-06-26T08:12:39.591Z,33.40
2019-06-26T08:15:06.990Z,29.50
2019-06-26T08:17:34.011Z,30.00
2019-06-26T08:20:00.965Z,27.40
2019-06-26T08:22:27.908Z,28.00
2019-06-26T08:24:54.867Z,30.00
2019-06-26T08:27:21.799Z,28.20
2019-06-26T08:29:48.635Z,28.10
2019-06-26T08:32:15.525Z,27.10
2019-06-26T08:34:42.475Z,28.10
2019-06-26T08:37:09.339Z,28.00
2019-06-26T08:39:36.303Z,26.80
2019-06-26T08:42:03.287Z,24.70
2019-06-26T08:47:26.142Z,23.90
2019-06-26T08:49:54.883Z,24.50
2019-06-26T08:52:21.994Z,22.50
2019-06-26T08:54:48.927Z,24.30
2019-06-26T08:57:15.885Z,25.60
2019-06-26T08:59:42.710Z,23.80
2019-06-26T09:02:09.672Z,24.40
2019-06-26T09:04:36.473Z,23.10
2019-06-26T09:07:03.470Z,24.20
2019-06-26T09:09:30.434Z,24.90
2019-06-26T09:11:57.250Z,25.20
2019-06-26T09:14:24.397Z,27.90
2019-06-26T09:16:51.226Z,26.90
2019-06-26T09:19:18.167Z,27.40
2019-06-26T09:21:45.090Z,26.20
2019-06-26T09:24:12.061Z,29.70
2019-06-26T09:26:39.005Z,30.00
2019-06-26T09:29:06.051Z,29.70
2019-06-26T09:31:33.201Z,24.40
2019-06-26T09:34:00.662Z,30.30
2019-06-26T09:36:27.638Z,32.50
2019-06-26T09:38:57.782Z,29.00
2019-06-26T09:41:23.643Z,28.20
2019-06-26T09:43:50.730Z,30.10
2019-06-26T09:46:17.644Z,28.30
2019-06-26T09:48:52.721Z,29.80
2019-06-26T09:51:14.088Z,32.30
2019-06-26T09:53:47.138Z,32.40
2019-06-26T09:56:09.887Z,32.10
2019-06-26T09:58:36.739Z,29.90
2019-06-26T10:01:03.549Z,26.60
2019-06-26T10:03:31.374Z,25.10
2019-06-26T10:05:58.525Z,29.00
2019-06-26T10:08:26.211Z,26.80
2019-06-26T10:10:53.031Z,26.30
2019-06-26T10:13:20.037Z,29.10
2019-06-26T10:15:47.076Z,30.70
2019-06-26T10:18:14.019Z,27.20
2019-06-26T10:20:41.547Z,30.10
2019-06-26T10:23:08.582Z,29.50
2019-06-26T10:25:35.760Z,28.30
2019-06-26T10:28:02.877Z,27.70
2019-06-26T10:30:30.342Z,29.50
2019-06-26T10:32:57.302Z,28.50
2019-06-26T10:35:24.135Z,27.30
2019-06-26T10:37:51.417Z,29.30
2019-06-26T10:40:18.374Z,31.20
2019-06-26T10:42:45.477Z,29.90
2019-06-26T10:45:12.940Z,25.30
2019-06-26T10:47:40.899Z,28.80
2019-06-26T10:50:08.238Z,29.40
2019-06-26T10:52:35.913Z,27.90
2019-06-26T10:55:04.978Z,24.40
2019-06-26T10:57:32.677Z,27.60
2019-06-26T11:00:00.814Z,23.40
2019-06-26T11:02:27.619Z,25.30
2019-06-26T11:04:54.548Z,23.30
2019-06-26T11:07:21.388Z,23.80
2019-06-26T11:09:48.347Z,27.90
2019-06-26T11:12:15.193Z,31.00
2019-06-26T11:14:42.133Z,34.90
2019-06-26T11:17:08.964Z,31.00
2019-06-26T11:19:43.625Z,31.80
2019-06-26T11:22:04.656Z,31.80
2019-06-26T11:24:31.603Z,26.20
2019-06-26T11:26:58.599Z,26.00
2019-06-26T11:29:25.630Z,25.50
2019-06-26T11:31:52.480Z,30.00
2019-06-26T11:34:19.321Z,26.60
2019-06-26T11:36:59.455Z,34.30
2019-06-26T11:39:15.068Z,33.00
2019-06-26T11:41:42.300Z,30.90
2019-06-26T11:44:09.159Z,35.50
2019-06-26T11:46:37.130Z,29.80
2019-06-26T11:49:04.146Z,29.30
2019-06-26T11:51:31.095Z,37.00
2019-06-26T11:53:59.122Z,31.20
2019-06-26T11:56:26.507Z,27.60
2019-06-26T11:58:53.323Z,35.10
2019-06-26T12:01:20.264Z,34.60
2019-06-26T12:03:47.106Z,33.50
2019-06-26T12:06:18.902Z,35.80
2019-06-26T12:08:42.707Z,25.20
2019-06-26T12:11:09.523Z,34.10
2019-06-26T12:13:36.784Z,38.70
2019-06-26T12:16:04.242Z,31.40
2019-06-26T12:18:31.179Z,29.30
2019-06-26T12:20:58.177Z,28.60
2019-06-26T12:23:25.343Z,24.40
2019-06-26T12:25:52.253Z,27.80
2019-06-26T12:28:19.395Z,25.50
2019-06-26T12:30:46.528Z,23.70
2019-06-26T12:33:13.389Z,25.10
2019-06-26T12:35:40.343Z,24.40
2019-06-26T12:38:07.365Z,25.40
2019-06-26T12:40:34.321Z,24.80
2019-06-26T12:43:01.323Z,25.20
2019-06-26T12:45:29.123Z,28.50
2019-06-26T12:47:56.196Z,25.10
2019-06-26T12:50:34.797Z,27.90
2019-06-26T12:52:53.576Z,27.70
2019-06-26T12:55:20.526Z,28.30
2019-06-26T12:57:47.447Z,31.20
2019-06-26T13:00:14.914Z,26.50
2019-06-26T13:02:41.837Z,28.70
2019-06-26T13:05:09.287Z,24.60
2019-06-26T13:07:36.207Z,24.60
2019-06-26T13:10:08.320Z,29.70
2019-06-26T13:12:35.932Z,31.10
2019-06-26T13:15:05.387Z,28.90
2019-06-26T13:17:32.253Z,30.80
2019-06-26T13:19:59.059Z,24.70
2019-06-26T13:22:25.888Z,24.40
2019-06-26T13:24:52.844Z,27.30
2019-06-26T13:27:19.856Z,27.00
2019-06-26T13:29:47.616Z,30.60
2019-06-26T13:32:16.728Z,28.90
2019-06-26T13:34:43.214Z,25.50
2019-06-26T13:37:10.101Z,36.10
2019-06-26T13:39:37.177Z,36.40
2019-06-26T13:42:04.116Z,34.40
2019-06-26T13:44:30.941Z,30.00
2019-06-26T13:46:57.903Z,27.80
2019-06-26T13:49:24.858Z,28.00
2019-06-26T13:51:52.907Z,32.30
2019-06-26T13:54:19.728Z,30.70
2019-06-26T13:56:46.676Z,26.40
2019-06-26T13:59:13.600Z,28.00
2019-06-26T14:01:40.561Z,33.40
2019-06-26T14:04:07.490Z,29.90
2019-06-26T14:06:34.437Z,33.10
2019-06-26T14:09:01.517Z,27.80
2019-06-26T14:11:30.271Z,28.40
2019-06-26T14:13:57.210Z,30.50
2019-06-26T14:16:24.150Z,28.70
2019-06-26T14:18:50.979Z,28.60
2019-06-26T14:21:25.702Z,27.80
2019-06-26T14:23:46.655Z,27.30
2019-06-26T14:26:13.582Z,31.60
2019-06-26T14:28:41.136Z,31.50
2019-06-26T14:31:08.140Z,29.00
2019-06-26T14:33:35.140Z,25.00
2019-06-26T14:36:14.771Z,27.30
2019-06-26T14:38:42.724Z,28.10
2019-06-26T14:41:09.671Z,26.00
2019-06-26T14:43:36.494Z,27.70
2019-06-26T14:46:03.511Z,26.50
2019-06-26T14:48:30.456Z,27.60
2019-06-26T14:50:57.513Z,29.90
2019-06-26T14:53:24.639Z,28.30
2019-06-26T14:55:51.560Z,30.30
2019-06-26T14:58:18.496Z,31.00
2019-06-26T15:00:45.325Z,34.80
2019-06-26T15:03:12.274Z,31.90
2019-06-26T15:05:39.209Z,33.10
2019-06-26T15:08:06.149Z,32.30
2019-06-26T15:10:33.409Z,33.70
2019-06-26T15:13:01.577Z,34.20
2019-06-26T15:15:28.633Z,31.80
2019-06-26T15:17:55.790Z,32.60
2019-06-26T15:20:22.627Z,35.30
2019-06-26T15:22:49.565Z,32.80
2019-06-26T15:25:17.099Z,32.50
2019-06-26T15:27:44.100Z,34.40
2019-06-26T15:30:11.630Z,33.80
2019-06-26T15:32:38.599Z,33.00
2019-06-26T15:35:06.844Z,33.90
2019-06-26T15:37:46.469Z,34.20
2019-06-26T15:40:14.712Z,36.90
2019-06-26T15:42:41.634Z,34.80
2019-06-26T15:45:09.305Z,36.10
2019-06-26T15:47:36.135Z,37.30
2019-06-26T15:50:06.352Z,35.20
2019-06-26T15:52:33.292Z,38.50
2019-06-26T15:55:00.236Z,36.10
2019-06-26T15:57:27.172Z,35.60
2019-06-26T15:59:54.051Z,38.40
2019-06-26T16:02:20.991Z,34.70
2019-06-26T16:04:48.736Z,35.10
2019-06-26T16:07:15.566Z,33.40
2019-06-26T16:09:42.390Z,34.80
2019-06-26T16:12:09.332Z,31.40
2019-06-26T16:14:37.550Z,30.80
2019-06-26T16:17:09.503Z,33.20
2019-06-26T16:19:36.475Z,33.00
2019-06-26T16:22:03.328Z,33.30
2019-06-26T16:24:30.349Z,30.20
2019-06-26T16:26:57.698Z,31.60
2019-06-26T16:29:24.669Z,31.90
2019-06-26T16:31:51.602Z,33.90
2019-06-26T16:34:18.424Z,35.20
2019-06-26T16:36:45.272Z,28.60
2019-06-26T16:39:12.226Z,32.00
2019-06-26T16:41:39.468Z,30.60
2019-06-26T16:44:06.619Z,33.40
2019-06-26T16:46:34.818Z,33.30
2019-06-26T16:49:01.767Z,34.40
2019-06-26T16:51:28.811Z,30.00
2019-06-26T16:53:55.766Z,30.00
2019-06-26T16:56:22.743Z,30.50
2019-06-26T16:58:49.583Z,29.10
2019-06-26T17:01:16.643Z,37.10
2019-06-26T17:03:43.545Z,29.40
2019-06-26T17:06:10.705Z,36.70
2019-06-26T17:08:38.204Z,30.00
2019-06-26T17:11:05.853Z,31.20
2019-06-26T17:13:32.886Z,29.60
2019-06-26T17:15:59.887Z,29.50
2019-06-26T17:18:26.748Z,31.10
2019-06-26T17:20:53.764Z,31.50
2019-06-26T17:23:20.783Z,30.00
2019-06-26T17:25:47.735Z,29.50
2019-06-26T17:28:14.772Z,31.90
2019-06-26T17:30:42.307Z,33.60
2019-06-26T17:33:09.284Z,35.70
2019-06-26T17:35:36.313Z,35.60
2019-06-26T17:38:03.275Z,33.70
2019-06-26T17:40:30.111Z,34.70
2019-06-26T17:43:11.386Z,33.80
2019-06-26T17:45:25.864Z,38.20
2019-06-26T17:48:02.754Z,33.90
2019-06-26T17:50:34.189Z,35.70
2019-06-26T17:53:02.239Z,36.40
2019-06-26T17:55:44.623Z,37.70
2019-06-26T17:58:25.289Z,42.30
2019-06-26T18:01:03.008Z,40.80
2019-06-26T18:03:38.205Z,47.50
2019-06-26T18:06:25.857Z,40.60
2019-06-26T18:09:01.241Z,39.30
2019-06-26T18:11:33.922Z,40.40
2019-06-26T18:14:04.149Z,47.30
2019-06-26T18:16:34.152Z,39.60
2019-06-26T18:19:03.753Z,46.60
2019-06-26T18:21:30.908Z,39.10
2019-06-26T18:23:59.351Z,47.30
2019-06-26T18:26:26.217Z,39.70
2019-06-26T18:28:53.755Z,41.40
2019-06-26T18:31:20.603Z,41.50
2019-06-26T18:33:47.519Z,49.20
2019-06-26T18:36:14.375Z,42.10
2019-06-26T18:38:41.483Z,41.20
2019-06-26T18:41:08.316Z,41.60
2019-06-26T18:43:35.228Z,42.40
2019-06-26T18:46:02.191Z,43.30
2019-06-26T18:48:29.116Z,48.00
2019-06-26T18:50:56.079Z,47.60
2019-06-26T18:53:23.568Z,45.00
2019-06-26T18:55:51.756Z,45.20
2019-06-26T19:00:53.754Z,46.50
2019-06-26T19:03:21.475Z,43.80
2019-06-26T19:05:49.824Z,49.00
2019-06-26T19:08:18.215Z,50.30
2019-06-26T19:10:45.576Z,51.20
2019-06-26T19:13:12.512Z,51.20
2019-06-26T19:15:40.245Z,50.70
2019-06-26T19:18:07.359Z,50.00
2019-06-26T19:20:34.836Z,48.10
2019-06-26T19:23:01.816Z,46.60
2019-06-26T19:25:28.640Z,47.50
2019-06-26T19:27:55.501Z,47.30
2019-06-26T19:30:22.432Z,46.80
2019-06-26T19:32:49.291Z,47.60
2019-06-26T19:35:20.091Z,47.80
2019-06-26T19:37:45.071Z,48.40
2019-06-26T19:40:12.221Z,49.10
2019-06-26T19:42:39.150Z,49.50
2019-06-26T19:45:07.679Z,52.40
2019-06-26T19:47:34.646Z,50.30
2019-06-26T19:50:03.219Z,50.30
2019-06-26T19:52:32.154Z,52.10
2019-06-26T19:54:59.114Z,50.60
2019-06-26T19:57:26.043Z,52.50
2019-06-26T19:59:52.879Z,53.50
2019-06-26T20:02:19.755Z,56.30
2019-06-26T20:04:48.301Z,58.40
2019-06-26T20:07:15.510Z,67.30
2019-06-26T20:09:42.467Z,69.20
2019-06-26T20:12:09.298Z,69.70
2019-06-26T20:14:36.144Z,69.10
2019-06-26T20:17:03.120Z,71.70
2019-06-26T20:19:29.950Z,77.60
2019-06-26T20:21:56.891Z,77.40
2019-06-26T20:24:24.032Z,77.50
2019-06-26T20:26:50.999Z,79.10
2019-06-26T20:29:17.846Z,82.60
2019-06-26T20:31:44.924Z,85.90
2019-06-26T20:34:11.871Z,85.70
2019-06-26T20:36:38.823Z,86.70
2019-06-26T20:39:06.091Z,87.70
2019-06-26T20:41:33.087Z,86.70
2019-06-26T20:43:59.913Z,85.90
2019-06-26T20:46:26.882Z,90.20
2019-06-26T20:48:53.728Z,89.20
2019-06-26T20:51:21.048Z,88.90
2019-06-26T20:53:48.215Z,88.40
2019-06-26T20:56:15.044Z,90.80
2019-06-26T20:58:42.054Z,90.40
2019-06-26T21:01:08.860Z,91.20
2019-06-26T21:04:29.502Z,91.60
2019-06-26T21:06:56.906Z,94.00
2019-06-26T21:09:23.899Z,92.40
2019-06-26T21:11:50.829Z,93.00
2019-06-26T21:14:17.832Z,92.80
2019-06-26T21:16:44.755Z,92.70
2019-06-26T21:19:11.766Z,91.40
2019-06-26T21:21:38.637Z,91.80
2019-06-26T21:24:05.554Z,92.70
2019-06-26T21:26:32.526Z,92.90
2019-06-26T21:29:00.885Z,92.60
2019-06-26T21:31:29.428Z,92.00
2019-06-26T21:33:56.353Z,92.70
2019-06-26T21:36:23.329Z,92.70
2019-06-26T21:38:50.282Z,92.50
2019-06-26T21:41:17.226Z,92.00
2019-06-26T21:43:44.188Z,93.60
2019-06-26T21:46:11.148Z,92.50
2019-06-26T21:48:38.059Z,92.30
2019-06-26T21:51:04.992Z,92.40
2019-06-26T21:53:31.856Z,92.00
2019-06-26T21:56:17.117Z,92.80
2019-06-26T21:59:02.417Z,93.40
2019-06-26T22:01:47.742Z,93.30
2019-06-26T22:04:32.882Z,92.80
2019-06-26T22:07:18.096Z,93.00
2019-06-26T22:09:47.040Z,94.50
2019-06-26T22:12:14.404Z,94.60
2019-06-26T22:14:42.449Z,94.30
2019-06-26T22:20:15.051Z,93.10
2019-06-26T22:22:41.898Z,93.30
2019-06-26T22:25:09.173Z,92.00
2019-06-26T22:27:36.099Z,94.10
2019-06-26T22:30:07.487Z,94.00
2019-06-26T22:32:34.355Z,95.50
2019-06-26T22:35:01.273Z,94.60
2019-06-26T22:37:28.172Z,94.40
2019-06-26T22:39:55.135Z,94.20
2019-06-26T22:42:23.457Z,94.00
2019-06-26T22:44:50.307Z,94.10
2019-06-26T22:47:17.259Z,93.90
2019-06-26T22:49:44.197Z,93.50
2019-06-26T22:52:11.153Z,93.30
2019-06-26T22:54:37.967Z,94.20
2019-06-26T22:57:04.926Z,94.00
2019-06-26T22:59:31.854Z,95.00
2019-06-26T23:01:59.319Z,94.20
2019-06-26T23:04:26.141Z,94.20
2019-06-26T23:06:52.984Z,94.40
2019-06-26T23:09:19.821Z,93.90
2019-06-26T23:11:46.776Z,93.70
2019-06-26T23:14:13.721Z,94.00
2019-06-26T23:19:41.318Z,95.20
2019-06-26T23:22:08.160Z,97.60
2019-06-26T23:24:35.099Z,95.20
2019-06-26T23:27:02.319Z,95.00
2019-06-26T23:29:29.144Z,94.80
2019-06-26T23:31:56.099Z,94.40
2019-06-26T23:34:23.248Z,93.90
2019-06-26T23:36:50.081Z,94.20
2019-06-26T23:39:17.019Z,95.10
2019-06-26T23:41:43.851Z,95.10
2019-06-26T23:44:10.824Z,94.60
2019-06-26T23:46:38.496Z,94.90
2019-06-26T23:49:05.337Z,94.80
2019-06-26T23:51:32.282Z,94.20
2019-06-26T23:53:59.137Z,94.70
2019-06-26T23:56:39.448Z,96.10
2019-06-26T23:58:55.424Z,96.60
